Time;durP1;ratioP1;P1;durP2;ratioP2;P2;SDS_P1;SDS_P2;PMS_P1;PMS_P2;Temp;Humidity;BMP_temperature;BMP_pressure;BME280_temperature;BME280_humidity;BME280_pressure;Samples;Min_cycle;Max_cycle;Signal;HPM_P1;HPM_P2
2021/05/17 00:01:56;;;;;;;0.80;0.80;;;9.10;99.90;;;;;;5050280;28;20028;-79
2021/05/17 00:04:33;;;;;;;0.83;0.70;;;9.10;99.90;;;;;;5050353;28;20430;-79
2021/05/17 00:07:01;;;;;;;0.80;0.63;;;9.10;99.90;;;;;;5042725;28;20017;-80
2021/05/17 00:09:27;;;;;;;0.70;0.70;;;9.20;99.90;;;;;;5050393;28;20032;-79
2021/05/17 00:11:54;;;;;;;0.87;0.70;;;9.10;99.90;;;;;;5043742;28;20116;-80
2021/05/17 00:14:22;;;;;;;1.43;0.73;;;9.20;99.90;;;;;;5050437;28;20028;-79
2021/05/17 00:16:48;;;;;;;2.53;0.90;;;9.30;99.90;;;;;;5050414;28;20035;-79
2021/05/17 00:19:14;;;;;;;0.97;0.80;;;9.30;99.90;;;;;;5050551;28;20499;-79
2021/05/17 00:21:41;;;;;;;0.70;0.70;;;9.40;99.90;;;;;;5050312;28;20100;-79
2021/05/17 00:24:09;;;;;;;2.30;0.80;;;9.50;99.90;;;;;;5050192;28;20029;-79
2021/05/17 00:26:35;;;;;;;0.80;0.73;;;9.50;99.90;;;;;;5042494;28;20017;-79
2021/05/17 00:29:02;;;;;;;0.60;0.60;;;9.50;99.90;;;;;;5043187;28;20472;-79
2021/05/17 00:31:28;;;;;;;0.80;0.70;;;9.60;99.90;;;;;;5050325;28;20126;-79
2021/05/17 00:33:54;;;;;;;1.20;0.80;;;9.60;99.90;;;;;;5050283;28;20029;-80
2021/05/17 00:36:20;;;;;;;1.93;0.70;;;9.60;99.90;;;;;;5050202;28;20024;-79
2021/05/17 00:38:46;;;;;;;1.13;0.70;;;9.60;99.90;;;;;;5050499;28;20053;-79
2021/05/17 00:41:12;;;;;;;1.17;0.60;;;9.60;99.90;;;;;;5032211;28;20118;-79
2021/05/17 00:43:38;;;;;;;0.70;0.70;;;9.60;99.90;;;;;;5050129;28;20033;-79
2021/05/17 00:46:05;;;;;;;1.50;0.80;;;9.60;99.90;;;;;;5050183;28;20025;-79
2021/05/17 00:48:34;;;;;;;2.37;0.90;;;9.50;99.90;;;;;;5050375;28;20100;-79
2021/05/17 00:51:00;;;;;;;1.43;0.80;;;9.70;99.90;;;;;;5050517;28;20112;-79
2021/05/17 00:53:26;;;;;;;1.13;0.90;;;9.60;99.90;;;;;;5044959;28;20029;-80
2021/05/17 00:55:52;;;;;;;1.10;0.80;;;9.60;99.90;;;;;;5038668;28;20367;-79
2021/05/17 00:58:18;;;;;;;1.77;0.80;;;9.50;99.90;;;;;;5047554;28;20083;-79
2021/05/17 01:00:46;;;;;;;3.53;1.13;;;9.50;99.90;;;;;;5040541;28;20504;-79
2021/05/17 01:03:12;;;;;;;1.03;0.80;;;9.50;99.90;;;;;;5049922;28;20025;-79
2021/05/17 01:05:39;;;;;;;0.87;0.77;;;9.50;99.90;;;;;;5048882;28;20049;-79
2021/05/17 01:08:09;;;;;;;1.57;0.93;;;9.50;99.90;;;;;;5042118;28;20036;-79
2021/05/17 01:10:41;;;;;;;1.50;1.00;;;9.50;99.90;;;;;;5051758;28;20056;-79
2021/05/17 01:13:07;;;;;;;1.60;0.80;;;9.60;99.90;;;;;;5053805;28;20028;-79
2021/05/17 01:15:35;;;;;;;2.83;0.90;;;9.50;99.90;;;;;;5036133;28;20035;-79
2021/05/17 01:18:01;;;;;;;1.20;1.10;;;9.50;99.90;;;;;;5053736;28;20064;-79
2021/05/17 01:20:30;;;;;;;2.97;1.00;;;9.50;99.90;;;;;;5053387;28;20028;-79
2021/05/17 01:25:56;;;;;;;2.00;0.80;;;9.50;99.90;;;;;;5040142;28;20036;-79
2021/05/17 01:28:24;;;;;;;2.53;1.00;;;9.50;99.90;;;;;;5053714;28;20028;-79
2021/05/17 01:30:55;;;;;;;1.43;0.90;;;9.60;99.90;;;;;;5052128;28;20025;-79
2021/05/17 01:33:21;;;;;;;2.60;1.13;;;9.60;99.90;;;;;;5045212;28;20469;-79
2021/05/17 01:35:50;;;;;;;1.83;1.00;;;9.60;99.90;;;;;;5043885;28;20052;-79
2021/05/17 01:38:19;;;;;;;2.33;1.00;;;9.60;99.90;;;;;;5053885;28;20110;-79
2021/05/17 01:40:46;;;;;;;4.77;1.13;;;9.50;99.90;;;;;;5049699;28;20111;-79
2021/05/17 01:43:14;;;;;;;2.57;0.83;;;9.60;99.90;;;;;;5050872;28;20036;-78
2021/05/17 01:45:41;;;;;;;2.40;0.87;;;9.60;99.90;;;;;;5046973;28;20383;-79
2021/05/17 01:48:08;;;;;;;2.90;1.00;;;9.60;99.90;;;;;;5053322;28;20028;-79
2021/05/17 01:50:35;;;;;;;3.43;1.10;;;9.70;99.90;;;;;;5053393;28;20382;-78
2021/05/17 01:53:00;;;;;;;1.63;1.10;;;9.80;99.90;;;;;;5035326;28;20105;-79
2021/05/17 01:55:27;;;;;;;2.43;1.00;;;9.70;99.90;;;;;;5041809;28;20030;-79
2021/05/17 01:58:08;;;;;;;1.80;0.80;;;9.80;99.90;;;;;;5049229;28;20075;-78
2021/05/17 02:00:35;;;;;;;2.83;1.07;;;9.70;99.90;;;;;;5034904;28;20025;-79
2021/05/17 02:03:00;;;;;;;2.87;1.03;;;9.60;99.90;;;;;;5043901;28;20033;-79
2021/05/17 02:05:27;;;;;;;1.33;1.00;;;9.80;99.90;;;;;;5052859;28;20078;-79
2021/05/17 02:07:54;;;;;;;2.13;1.10;;;9.70;99.90;;;;;;5052628;28;20125;-79
2021/05/17 02:10:20;;;;;;;1.43;0.93;;;9.70;99.90;;;;;;5052850;28;20120;-79
2021/05/17 02:12:47;;;;;;;1.30;1.13;;;9.80;99.90;;;;;;5052798;28;20029;-79
2021/05/17 02:15:13;;;;;;;2.30;0.80;;;9.70;99.90;;;;;;5052743;28;20042;-79
2021/05/17 02:17:39;;;;;;;2.50;1.07;;;9.70;99.90;;;;;;5052884;28;20116;-78
2021/05/17 02:20:05;;;;;;;2.10;1.20;;;9.60;99.90;;;;;;5052528;28;20025;-79
2021/05/17 02:22:31;;;;;;;1.63;1.30;;;9.60;99.90;;;;;;5052427;28;20024;-79
2021/05/17 02:24:57;;;;;;;2.07;0.90;;;9.60;99.90;;;;;;5052362;28;20716;-79
2021/05/17 02:27:23;;;;;;;3.10;1.30;;;9.60;99.90;;;;;;5045373;28;20025;-79
2021/05/17 02:29:49;;;;;;;1.67;0.90;;;9.60;99.90;;;;;;5045518;28;20032;-79
2021/05/17 02:32:22;;;;;;;2.37;1.00;;;9.50;99.90;;;;;;5050923;28;20098;-79
2021/05/17 02:34:49;;;;;;;1.87;1.00;;;9.60;99.90;;;;;;5034346;28;20386;-79
2021/05/17 02:37:15;;;;;;;1.20;0.77;;;9.60;99.90;;;;;;5034381;28;20033;-79
2021/05/17 02:39:40;;;;;;;1.50;0.83;;;9.50;99.90;;;;;;5049830;28;20037;-79
2021/05/17 02:42:12;;;;;;;2.27;1.00;;;9.50;99.90;;;;;;5052119;28;20690;-79
2021/05/17 02:44:38;;;;;;;3.00;1.10;;;9.40;99.90;;;;;;5051838;28;20040;-79
2021/05/17 02:47:04;;;;;;;4.13;1.10;;;9.40;99.90;;;;;;5031446;28;20383;-79
2021/05/17 02:49:34;;;;;;;3.30;0.90;;;9.30;99.90;;;;;;5050384;28;20348;-79
2021/05/17 02:52:00;;;;;;;1.30;0.90;;;9.40;99.90;;;;;;5051266;28;20025;-79
2021/05/17 02:54:38;;;;;;;2.87;0.70;;;9.30;99.90;;;;;;5047505;28;20036;-79
2021/05/17 02:57:14;;;;;;;1.30;0.83;;;9.30;99.90;;;;;;5050301;28;20442;-79
2021/05/17 03:00:21;;;;;;;2.83;0.70;;;9.30;99.90;;;;;;5051853;28;20044;-79
2021/05/17 03:03:10;;;;;;;0.70;0.60;;;9.30;99.90;;;;;;5031328;28;20394;-80
2021/05/17 03:05:41;;;;;;;0.90;0.80;;;9.30;99.90;;;;;;5051640;28;20108;-79
2021/05/17 03:08:14;;;;;;;1.03;0.83;;;9.40;99.90;;;;;;5051730;28;20021;-79
2021/05/17 03:10:43;;;;;;;1.50;0.70;;;9.30;99.90;;;;;;5051804;28;20490;-79
2021/05/17 03:13:15;;;;;;;2.03;1.23;;;9.40;99.90;;;;;;5051613;28;20033;-80
2021/05/17 03:15:42;;;;;;;1.63;0.70;;;9.40;99.90;;;;;;5045064;28;20047;-79
2021/05/17 03:18:09;;;;;;;3.17;0.80;;;9.40;99.90;;;;;;5033591;28;20059;-80
2021/05/17 03:20:36;;;;;;;0.63;0.63;;;9.40;99.90;;;;;;5051490;28;20025;-79
2021/05/17 03:23:11;;;;;;;1.47;0.80;;;9.40;99.90;;;;;;5051106;28;20501;-80
2021/05/17 03:25:38;;;;;;;2.92;0.70;;;9.50;99.90;;;;;;5044616;28;20033;-79
2021/05/17 03:28:04;;;;;;;0.70;0.70;;;9.40;99.90;;;;;;5039372;28;20509;-79
2021/05/17 03:30:30;;;;;;;1.53;0.70;;;9.40;99.90;;;;;;5030675;28;20028;-78
2021/05/17 03:32:55;;;;;;;1.17;0.70;;;9.50;99.90;;;;;;5041569;28;20021;-79
2021/05/17 03:35:21;;;;;;;1.67;0.90;;;9.50;99.90;;;;;;5051154;28;20522;-79
2021/05/17 03:37:47;;;;;;;0.77;0.70;;;9.60;99.90;;;;;;5051091;28;20017;-79
2021/05/17 03:40:14;;;;;;;2.23;0.83;;;9.60;99.90;;;;;;5051088;28;20021;-79
2021/05/17 03:42:40;;;;;;;0.90;0.80;;;9.50;99.90;;;;;;5051458;28;20029;-79
2021/05/17 03:45:08;;;;;;;3.80;1.00;;;9.60;99.90;;;;;;5051431;28;20036;-79
2021/05/17 03:47:34;;;;;;;1.13;0.80;;;9.50;99.90;;;;;;5050893;28;20029;-79
2021/05/17 03:50:00;;;;;;;2.90;0.80;;;9.50;99.90;;;;;;5033366;28;20021;-79
2021/05/17 03:52:25;;;;;;;3.80;0.90;;;9.40;99.90;;;;;;5051179;28;20374;-79
2021/05/17 03:54:51;;;;;;;4.93;0.97;;;9.30;99.90;;;;;;5047649;28;20092;-80
2021/05/17 03:57:19;;;;;;;2.40;0.80;;;9.30;99.90;;;;;;5033634;28;20059;-80
2021/05/17 03:59:45;;;;;;;1.97;0.80;;;9.40;99.90;;;;;;5041056;28;20079;-80
2021/05/17 04:02:20;;;;;;;3.67;1.00;;;9.30;99.90;;;;;;5040438;28;20021;-80
2021/05/17 04:15:44;;;;;;;1.93;0.83;;;9.30;99.90;;;;;;5032851;28;20032;-77
2021/05/17 04:18:10;;;;;;;3.80;1.07;;;9.30;99.90;;;;;;5041811;28;20050;-77
2021/05/17 04:20:36;;;;;;;2.87;0.97;;;9.30;99.90;;;;;;5047095;28;20073;-66
2021/05/17 04:23:02;;;;;;;2.77;1.23;;;9.40;99.90;;;;;;5041954;28;20070;-66
2021/05/17 04:25:28;;;;;;;2.00;0.90;;;9.30;99.90;;;;;;5042523;28;20021;-78
2021/05/17 04:27:54;;;;;;;7.33;1.10;;;9.30;99.90;;;;;;5027134;28;20017;-79
2021/05/17 04:30:20;;;;;;;4.43;1.20;;;9.20;99.90;;;;;;5050621;28;20025;-78
2021/05/17 04:32:45;;;;;;;3.97;1.43;;;9.20;99.90;;;;;;5034165;28;20026;-78
2021/05/17 04:35:12;;;;;;;3.60;1.30;;;9.10;99.90;;;;;;5021573;28;20048;-79
2021/05/17 04:37:37;;;;;;;4.90;1.00;;;9.10;99.90;;;;;;5024757;28;20524;-78
2021/05/17 04:40:04;;;;;;;2.03;1.10;;;9.10;99.90;;;;;;5053238;28;20017;-78
2021/05/17 04:42:30;;;;;;;4.37;1.20;;;9.10;99.90;;;;;;5043136;28;20021;-78
2021/05/17 04:44:55;;;;;;;6.57;1.23;;;9.10;99.90;;;;;;5033596;28;20101;-78
2021/05/17 04:47:21;;;;;;;2.73;1.00;;;9.10;99.90;;;;;;5050505;28;20121;-78
2021/05/17 04:49:46;;;;;;;7.87;1.43;;;9.10;99.90;;;;;;5037229;28;20105;-78
2021/05/17 04:52:12;;;;;;;2.13;1.00;;;9.10;99.90;;;;;;5037124;28;20319;-78
2021/05/17 04:54:37;;;;;;;6.30;1.83;;;9.10;99.90;;;;;;5050190;28;20061;-78
2021/05/17 04:57:03;;;;;;;6.17;1.13;;;9.20;99.90;;;;;;5056519;28;20397;-78
2021/05/17 04:59:29;;;;;;;6.70;1.47;;;9.20;99.90;;;;;;5042628;28;20025;-73
2021/05/17 05:01:54;;;;;;;4.30;1.20;;;9.30;99.90;;;;;;5048926;28;20508;-73
2021/05/17 05:04:20;;;;;;;5.60;1.20;;;9.30;99.90;;;;;;5045806;28;20032;-73
2021/05/17 05:06:46;;;;;;;3.87;1.33;;;9.30;99.90;;;;;;5043432;28;20021;-73
2021/05/17 05:09:11;;;;;;;4.07;1.47;;;9.40;99.90;;;;;;5039452;28;20021;-73
2021/05/17 05:11:37;;;;;;;7.33;1.50;;;9.30;99.90;;;;;;5047907;28;20048;-72
2021/05/17 05:14:03;;;;;;;5.27;1.57;;;9.40;99.90;;;;;;5046172;28;20446;-73
2021/05/17 05:16:29;;;;;;;7.10;1.70;;;9.40;99.90;;;;;;5049718;28;20032;-72
2021/05/17 05:18:54;;;;;;;5.97;1.67;;;9.50;99.90;;;;;;5049542;28;20466;-72
2021/05/17 05:21:20;;;;;;;5.97;1.40;;;9.40;99.90;;;;;;5049043;28;20025;-73
2021/05/17 05:23:46;;;;;;;8.13;2.03;;;9.50;99.90;;;;;;5042285;28;20049;-74
2021/05/17 05:31:34;;;;;;;4.37;1.50;;;9.60;99.90;;;;;;5042991;28;20527;-74
2021/05/17 05:33:59;;;;;;;5.40;2.40;;;9.50;99.90;;;;;;5049814;28;20021;-74
2021/05/17 05:36:25;;;;;;;6.13;1.73;;;9.60;99.90;;;;;;5042249;28;20031;-73
2021/05/17 05:38:51;;;;;;;6.33;1.53;;;9.50;99.90;;;;;;5041953;28;20029;-74
2021/05/17 05:41:16;;;;;;;5.30;1.43;;;9.60;99.90;;;;;;5036671;28;20025;-76
2021/05/17 05:43:42;;;;;;;8.83;1.80;;;9.60;99.90;;;;;;5010718;28;20475;-76
2021/05/17 05:46:10;;;;;;;5.47;1.10;;;9.60;99.90;;;;;;5045599;28;20041;-78
2021/05/17 05:48:47;;;;;;;4.40;1.40;;;9.60;99.90;;;;;;5036357;28;20045;-77
2021/05/17 05:51:21;;;;;;;7.17;1.60;;;9.70;99.90;;;;;;5032854;28;20104;-76
2021/05/17 05:53:47;;;;;;;7.85;1.83;;;9.70;99.90;;;;;;5049851;28;20021;-76
2021/05/17 05:56:13;;;;;;;4.65;1.40;;;9.70;99.90;;;;;;5051013;28;20386;-77
2021/05/17 05:58:38;;;;;;;8.53;1.40;;;9.70;99.90;;;;;;5054807;28;20048;-76
2021/05/17 06:01:04;;;;;;;5.97;1.50;;;9.80;99.90;;;;;;5022874;28;20029;-75
2021/05/17 06:03:30;;;;;;;6.47;1.70;;;9.80;99.90;;;;;;5048888;28;20021;-78
2021/05/17 06:05:56;;;;;;;8.17;1.53;;;9.80;99.90;;;;;;5048179;28;20083;-77
2021/05/17 06:08:22;;;;;;;6.32;1.83;;;9.80;99.90;;;;;;5047469;28;20017;-77
2021/05/17 06:10:48;;;;;;;6.87;1.43;;;9.80;99.90;;;;;;5045609;28;20116;-77
2021/05/17 06:13:14;;;;;;;7.33;1.43;;;9.80;99.90;;;;;;5049156;28;20103;-82
2021/05/17 06:15:43;;;;;;;5.83;1.97;;;9.90;99.90;;;;;;5016248;28;20032;-73
2021/05/17 06:18:09;;;;;;;6.40;1.40;;;9.90;99.90;;;;;;5049768;28;20025;-73
2021/05/17 06:20:36;;;;;;;7.75;1.88;;;10.00;99.90;;;;;;5043483;28;20028;-82
2021/05/17 06:23:02;;;;;;;5.23;1.60;;;10.10;99.90;;;;;;5039981;28;20036;-82
2021/05/17 06:25:28;;;;;;;3.13;1.20;;;10.10;99.90;;;;;;5040867;28;20067;-82
2021/05/17 06:27:54;;;;;;;12.13;1.65;;;10.10;99.90;;;;;;5036893;28;20078;-83
2021/05/17 06:30:21;;;;;;;3.10;1.20;;;10.20;99.90;;;;;;5047596;28;20039;-83
2021/05/17 06:32:48;;;;;;;6.77;1.67;;;10.20;99.90;;;;;;5039137;28;20646;-83
2021/05/17 06:35:19;;;;;;;6.90;1.80;;;10.10;99.90;;;;;;5037819;28;20454;-83
2021/05/17 06:37:45;;;;;;;6.70;1.13;;;10.10;99.90;;;;;;5043757;28;20017;-83
2021/05/17 06:40:12;;;;;;;7.22;1.63;;;10.20;99.90;;;;;;5041008;28;20072;-82
2021/05/17 06:42:37;;;;;;;4.43;1.23;;;10.20;99.90;;;;;;5041898;28;20017;-82
2021/05/17 06:45:04;;;;;;;5.43;1.53;;;10.20;99.90;;;;;;5042042;28;20025;-76
2021/05/17 06:47:33;;;;;;;7.37;1.53;;;10.40;99.90;;;;;;5044250;28;20091;-76
2021/05/17 06:49:59;;;;;;;9.53;1.30;;;10.50;99.90;;;;;;5059598;23;20373;-73
2021/05/17 06:52:26;;;;;;;7.73;1.47;;;10.50;99.90;;;;;;5050490;28;20047;-74
2021/05/17 06:55:11;;;;;;;7.43;2.40;;;10.50;99.90;;;;;;5047461;28;20025;-76
2021/05/17 07:00:32;;;;;;;6.03;1.40;;;10.80;99.90;;;;;;5050879;28;20087;-73
2021/05/17 07:03:07;;;;;;;5.95;1.70;;;10.80;99.90;;;;;;5052359;28;20024;-73
2021/05/17 07:05:37;;;;;;;7.63;1.30;;;10.80;99.90;;;;;;5051270;28;20103;-74
2021/05/17 07:13:17;;;;;;;4.35;1.73;;;11.10;99.90;;;;;;5049295;28;20031;-73
2021/05/17 07:15:44;;;;;;;5.25;1.48;;;10.90;99.90;;;;;;5046967;28;20456;-73
2021/05/17 07:18:10;;;;;;;10.07;2.10;;;11.00;99.90;;;;;;5058293;28;20114;-74
2021/05/17 07:26:00;;;;;;;5.68;1.40;;;11.30;99.90;;;;;;5050745;28;20483;-76
2021/05/17 07:28:26;;;;;;;5.15;1.50;;;11.30;99.90;;;;;;5050436;28;20029;-76
2021/05/17 07:30:53;;;;;;;3.47;1.23;;;11.40;99.90;;;;;;5045765;28;20029;-76
2021/05/17 07:33:19;;;;;;;6.85;1.38;;;11.40;99.90;;;;;;5050201;28;20033;-78
2021/05/17 07:35:45;;;;;;;6.93;2.22;;;11.30;99.90;;;;;;5060033;28;20029;-77
2021/05/17 07:38:11;;;;;;;5.40;1.60;;;11.40;99.90;;;;;;5053368;28;20416;-83
2021/05/17 07:40:37;;;;;;;15.30;1.50;;;11.50;99.90;;;;;;5052295;28;20060;-77
2021/05/17 07:43:03;;;;;;;4.32;1.42;;;11.70;99.90;;;;;;5040964;28;20099;-77
2021/05/17 07:45:29;;;;;;;4.15;1.20;;;11.90;99.90;;;;;;5052384;28;20028;-73
2021/05/17 07:47:55;;;;;;;5.43;1.52;;;12.10;99.90;;;;;;5051935;28;20401;-73
2021/05/17 07:50:21;;;;;;;4.28;1.30;;;12.30;99.90;;;;;;5060321;28;20053;-76
2021/05/17 07:52:46;;;;;;;3.97;1.13;;;12.50;99.90;;;;;;5061715;28;20036;-76
2021/05/17 07:55:20;;;;;;;7.15;1.20;;;12.70;99.90;;;;;;5063577;28;20028;-76
2021/05/17 07:57:46;;;;;;;4.30;1.20;;;12.70;99.90;;;;;;5051042;28;20039;-84
2021/05/17 08:00:13;;;;;;;4.95;1.20;;;12.70;99.90;;;;;;5050238;28;20028;-76
2021/05/17 08:02:39;;;;;;;6.68;1.00;;;12.60;99.90;;;;;;5052621;28;20432;-76
2021/05/17 08:05:05;;;;;;;4.38;1.08;;;12.70;99.90;;;;;;5048408;28;20106;-78
2021/05/17 08:07:32;;;;;;;4.35;1.00;;;12.60;99.90;;;;;;5051961;28;20103;-78
2021/05/17 08:09:57;;;;;;;3.85;1.02;;;12.70;99.90;;;;;;5052167;28;20048;-77
2021/05/17 08:12:24;;;;;;;5.88;1.50;;;12.70;99.90;;;;;;5034992;28;20068;-77
2021/05/17 08:14:50;;;;;;;3.45;1.00;;;12.50;99.90;;;;;;5030892;28;20041;-78
2021/05/17 08:17:15;;;;;;;3.38;0.90;;;12.40;99.90;;;;;;5033873;28;20188;-73
2021/05/17 08:19:41;;;;;;;2.63;0.88;;;12.20;99.90;;;;;;5049312;28;20044;-76
2021/05/17 08:22:06;;;;;;;2.03;0.70;;;12.20;99.90;;;;;;5045601;28;20420;-76
2021/05/17 08:24:32;;;;;;;3.50;1.13;;;12.20;99.90;;;;;;5041719;28;20063;-76
2021/05/17 08:26:59;;;;;;;3.28;0.90;;;12.40;99.90;;;;;;5049577;28;20033;-76
2021/05/17 08:29:26;;;;;;;6.25;1.25;;;12.40;99.90;;;;;;5047669;28;20033;-77
2021/05/17 08:31:52;;;;;;;3.08;0.90;;;12.50;99.90;;;;;;5045156;28;20100;-77
2021/05/17 08:34:18;;;;;;;3.40;0.80;;;12.60;99.90;;;;;;5053600;28;20108;-76
2021/05/17 08:36:44;;;;;;;2.53;0.90;;;12.70;99.90;;;;;;5058781;28;20038;-76
2021/05/17 08:39:10;;;;;;;2.25;1.15;;;12.90;99.90;;;;;;5033998;28;20114;-74
2021/05/17 08:41:37;;;;;;;1.98;0.90;;;13.00;99.90;;;;;;5051013;28;20100;-74
2021/05/17 08:44:04;;;;;;;3.08;0.70;;;13.00;99.90;;;;;;5051412;28;20053;-77
2021/05/17 08:46:29;;;;;;;4.22;1.48;;;13.20;99.90;;;;;;5032122;28;20017;-74
2021/05/17 08:48:55;;;;;;;2.45;0.93;;;13.20;99.90;;;;;;5051320;28;20025;-74
2021/05/17 08:51:25;;;;;;;2.10;0.82;;;13.10;99.90;;;;;;5049691;28;20035;-75
2021/05/17 08:53:53;;;;;;;1.83;0.95;;;13.10;99.90;;;;;;5050926;28;20199;-74
2021/05/17 08:56:20;;;;;;;8.18;0.88;;;13.10;99.90;;;;;;5030131;28;20032;-75
2021/05/17 08:58:46;;;;;;;3.33;1.00;;;13.40;99.90;;;;;;5050811;28;20036;-75
2021/05/17 09:01:12;;;;;;;0.80;0.70;;;13.30;99.90;;;;;;5032093;28;20025;-74
2021/05/17 09:03:39;;;;;;;1.70;1.00;;;13.50;99.90;;;;;;5050823;28;20017;-74
2021/05/17 09:06:07;;;;;;;1.95;0.80;;;13.80;99.90;;;;;;5049523;28;20017;-78
2021/05/17 09:08:40;;;;;;;1.08;0.70;;;13.90;99.90;;;;;;5047710;28;20021;-77
2021/05/17 09:11:06;;;;;;;2.40;0.90;;;13.90;99.90;;;;;;5049019;28;20044;-77
2021/05/17 09:13:32;;;;;;;2.47;1.00;;;13.80;99.90;;;;;;5048861;28;20025;-77
2021/05/17 09:15:58;;;;;;;1.75;0.65;;;13.90;99.90;;;;;;5049074;28;20060;-77
2021/05/17 09:18:30;;;;;;;2.30;0.63;;;14.30;99.90;;;;;;5031406;28;20115;-77
2021/05/17 09:20:59;;;;;;;5.28;1.10;;;14.40;99.90;;;;;;5032083;28;20029;-74
2021/05/17 09:23:32;;;;;;;1.13;0.80;;;14.50;99.90;;;;;;5050905;28;20017;-75
2021/05/17 09:26:16;;;;;;;4.70;1.35;;;14.40;99.90;;;;;;5052366;28;20021;-75
2021/05/17 09:28:46;;;;;;;1.35;0.70;;;14.30;99.90;;;;;;5050302;28;20017;-75
2021/05/17 09:31:13;;;;;;;2.95;0.65;;;14.50;99.90;;;;;;5050146;28;20033;-74
2021/05/17 09:33:56;;;;;;;4.22;1.15;;;14.70;99.90;;;;;;5054012;28;20440;-79
2021/05/17 09:36:33;;;;;;;1.27;0.68;;;14.80;99.90;;;;;;5045720;28;20043;-79
2021/05/17 09:39:12;;;;;;;6.10;0.70;;;14.70;99.90;;;;;;5051209;28;20115;-74
2021/05/17 09:41:46;;;;;;;3.05;1.27;;;14.60;99.90;;;;;;5061810;28;20024;-74
2021/05/17 09:44:17;;;;;;;1.92;1.00;;;14.60;99.90;;;;;;5066003;28;20139;-75
2021/05/17 09:47:20;;;;;;;1.63;0.68;;;14.60;99.90;;;;;;5054395;28;20017;-75
2021/05/17 09:49:56;;;;;;;1.58;0.80;;;14.70;99.90;;;;;;5069674;28;20032;-75
2021/05/17 09:52:22;;;;;;;4.20;0.73;;;14.70;99.90;;;;;;5054928;28;20785;-74
2021/05/17 09:55:04;;;;;;;5.25;1.02;;;14.60;99.90;;;;;;5054912;28;20032;-78
2021/05/17 09:57:41;;;;;;;3.53;0.70;;;15.00;99.90;;;;;;5050427;28;20107;-78
2021/05/17 10:00:12;;;;;;;1.98;0.70;;;15.10;99.90;;;;;;5041797;28;20111;-78
2021/05/17 10:02:41;;;;;;;2.45;0.93;;;15.10;99.90;;;;;;5066363;28;20447;-74
2021/05/17 10:05:29;;;;;;;3.83;0.80;;;15.20;99.90;;;;;;5073515;28;20441;-74
2021/05/17 10:07:59;;;;;;;4.80;1.10;;;15.30;99.90;;;;;;5073919;28;20020;-75
2021/05/17 10:10:27;;;;;;;3.28;0.77;;;15.50;99.90;;;;;;5040556;28;20066;-75
2021/05/17 10:12:54;;;;;;;3.50;0.90;;;15.70;99.90;;;;;;5049691;28;20028;-77
2021/05/17 10:15:22;;;;;;;2.55;0.75;;;15.60;99.90;;;;;;5032903;28;20025;-78
2021/05/17 10:17:49;;;;;;;4.53;0.90;;;15.50;99.90;;;;;;5051531;28;20104;-78
2021/05/17 10:20:18;;;;;;;2.63;0.65;;;15.40;99.90;;;;;;5048909;28;20017;-78
2021/05/17 10:22:45;;;;;;;2.35;1.00;;;15.10;99.90;;;;;;5052836;28;20069;-74
2021/05/17 10:25:13;;;;;;;4.45;0.98;;;14.80;99.90;;;;;;5053270;28;20052;-74
2021/05/17 10:27:44;;;;;;;4.28;0.90;;;14.60;99.90;;;;;;5055653;28;20107;-78
2021/05/17 10:30:11;;;;;;;4.60;0.80;;;14.70;99.90;;;;;;5052941;28;20032;-74
2021/05/17 10:32:54;;;;;;;4.00;1.00;;;14.90;99.90;;;;;;5049997;28;20082;-75
2021/05/17 10:35:28;;;;;;;3.67;0.85;;;14.90;99.90;;;;;;5048535;28;20049;-74
2021/05/17 10:38:39;;;;;;;2.88;0.90;;;15.00;99.90;;;;;;5058325;28;20037;-74
2021/05/17 10:46:46;;;;;;;2.65;1.00;;;15.10;99.90;;;;;;5052905;28;20063;-74
2021/05/17 10:49:34;;;;;;;1.88;0.75;;;15.30;99.90;;;;;;5054580;28;20508;-78
2021/05/17 10:52:10;;;;;;;2.30;0.75;;;15.70;99.90;;;;;;5032555;28;20472;-85
2021/05/17 10:54:40;;;;;;;3.30;1.08;;;15.80;99.90;;;;;;5044977;28;20089;-78
2021/05/17 10:57:25;;;;;;;2.25;0.88;;;15.50;99.90;;;;;;5045425;28;20525;-79
2021/05/17 11:02:43;;;;;;;3.60;1.05;;;15.50;99.90;;;;;;5052253;28;20047;-75
2021/05/17 11:05:10;;;;;;;3.15;0.85;;;15.50;99.90;;;;;;5033172;28;20025;-74
2021/05/17 11:07:49;;;;;;;1.42;0.70;;;15.70;99.90;;;;;;5052766;28;20021;-75
2021/05/17 11:10:17;;;;;;;2.45;0.88;;;15.70;99.90;;;;;;5049377;28;20027;-75
2021/05/17 11:12:53;;;;;;;3.40;0.90;;;15.50;99.90;;;;;;5063812;28;20017;-75
2021/05/17 11:15:22;;;;;;;3.85;0.80;;;15.30;99.90;;;;;;5063624;28;20029;-75
2021/05/17 11:18:02;;;;;;;6.50;1.05;;;15.10;99.90;;;;;;5051283;28;20063;-74
2021/05/17 11:20:40;;;;;;;3.22;1.38;;;15.10;99.90;;;;;;5038276;28;20028;-75
2021/05/17 11:23:25;;;;;;;3.80;0.90;;;15.40;99.90;;;;;;5050820;28;20032;-75
2021/05/17 11:26:07;;;;;;;2.28;0.70;;;15.30;99.90;;;;;;5044605;28;20021;-75
2021/05/17 11:28:36;;;;;;;4.38;0.73;;;15.40;99.90;;;;;;5063635;28;20021;-75
2021/05/17 11:33:48;;;;;;;5.03;1.42;;;15.40;99.90;;;;;;5065830;28;20409;-75
2021/05/17 11:36:15;;;;;;;1.90;0.60;;;15.00;99.90;;;;;;5070988;28;20021;-75
2021/05/17 11:39:02;;;;;;;1.77;0.77;;;14.90;99.90;;;;;;5058539;28;20055;-75
2021/05/17 11:41:30;;;;;;;2.67;0.60;;;14.70;99.90;;;;;;5055223;28;20032;-75
2021/05/17 11:44:03;;;;;;;1.50;0.70;;;14.80;99.90;;;;;;5063547;28;20024;-75
2021/05/17 11:46:38;;;;;;;2.20;1.00;;;15.10;99.90;;;;;;5069872;28;20009;-75
2021/05/17 11:49:05;;;;;;;2.33;0.70;;;15.20;99.90;;;;;;5057408;28;20036;-79
2021/05/17 11:51:32;;;;;;;2.67;0.70;;;15.30;99.90;;;;;;5055599;28;20021;-77
2021/05/17 11:54:01;;;;;;;1.42;0.80;;;15.60;99.90;;;;;;5036378;28;20453;-84
2021/05/17 11:56:42;;;;;;;3.15;0.77;;;15.70;99.90;;;;;;5063382;28;20025;-75
2021/05/17 11:59:19;;;;;;;1.52;0.70;;;16.10;99.90;;;;;;5050231;28;20032;-75
2021/05/17 12:01:47;;;;;;;3.28;0.70;;;16.40;99.90;;;;;;5047944;28;20107;-74
2021/05/17 12:04:34;;;;;;;5.50;0.90;;;16.80;99.90;;;;;;5061471;28;20020;-75
2021/05/17 12:07:06;;;;;;;6.03;0.93;;;16.50;99.90;;;;;;5037658;28;20025;-75
2021/05/17 12:09:38;;;;;;;3.35;0.70;;;16.50;99.90;;;;;;5065284;28;20031;-75
2021/05/17 12:12:10;;;;;;;4.78;1.00;;;16.80;99.90;;;;;;5037331;28;20492;-74
2021/05/17 12:14:38;;;;;;;2.10;0.70;;;17.10;99.90;;;;;;5064507;28;20350;-75
2021/05/17 12:17:13;;;;;;;10.18;1.27;;;17.40;99.70;;;;;;5070548;28;20027;-75
2021/05/17 12:19:40;;;;;;;3.78;0.77;;;17.50;97.60;;;;;;5056421;28;20477;-75
2021/05/17 12:22:09;;;;;;;5.15;0.88;;;17.60;98.20;;;;;;5055769;28;20032;-75
2021/05/17 12:24:35;;;;;;;8.48;1.00;;;17.90;96.00;;;;;;5057812;28;20025;-74
2021/05/17 12:27:10;;;;;;;1.50;0.85;;;17.60;96.60;;;;;;5049870;28;20025;-74
2021/05/17 12:29:58;;;;;;;4.95;1.00;;;17.50;95.20;;;;;;5047633;28;20067;-86
2021/05/17 12:32:40;;;;;;;2.22;0.60;;;17.40;96.00;;;;;;5021364;28;20060;-85
2021/05/17 12:35:13;;;;;;;1.20;0.60;;;17.70;96.00;;;;;;5043420;28;20119;-75
2021/05/17 12:37:42;;;;;;;1.42;0.85;;;17.40;96.00;;;;;;5031179;28;20060;-78
2021/05/17 12:40:34;;;;;;;1.95;0.70;;;17.30;95.40;;;;;;5046892;28;20037;-78
2021/05/17 12:43:16;;;;;;;1.60;0.60;;;17.20;95.20;;;;;;5031485;28;20033;-79
2021/05/17 12:45:48;;;;;;;1.58;0.65;;;17.10;95.80;;;;;;5050069;28;20025;-75
2021/05/17 12:48:39;;;;;;;1.45;0.70;;;17.10;94.20;;;;;;5029221;28;20075;-85
2021/05/17 12:51:17;;;;;;;4.28;0.70;;;17.10;94.70;;;;;;5048896;28;20388;-85
2021/05/17 12:53:43;;;;;;;2.33;0.60;;;16.80;95.90;;;;;;5049154;28;20024;-86
2021/05/17 12:56:09;;;;;;;1.52;0.63;;;16.70;94.90;;;;;;5047003;28;20431;-78
2021/05/17 12:58:35;;;;;;;2.08;0.80;;;16.90;96.70;;;;;;5046314;28;20067;-78
2021/05/17 13:01:11;;;;;;;2.60;0.73;;;17.10;94.10;;;;;;5046556;28;20033;-78
2021/05/17 13:03:52;;;;;;;4.57;0.77;;;17.00;95.40;;;;;;5034514;28;20025;-79
2021/05/17 13:06:22;;;;;;;2.55;0.77;;;17.00;94.10;;;;;;5048767;28;20051;-78
2021/05/17 13:08:58;;;;;;;4.10;1.27;;;17.20;94.50;;;;;;5062858;28;20823;-78
2021/05/17 13:11:23;;;;;;;3.33;0.70;;;17.30;95.20;;;;;;5050306;28;20029;-78
2021/05/17 13:14:12;;;;;;;2.20;1.00;;;17.40;94.20;;;;;;5050112;28;20044;-78
2021/05/17 13:16:47;;;;;;;5.60;0.85;;;17.30;93.50;;;;;;5049878;28;20035;-78
2021/05/17 13:19:31;;;;;;;;;;;17.20;93.50;;;;;;5050777;28;20029;-78
2021/05/17 13:30:35;;;;;;;3.80;0.60;;;16.90;92.50;;;;;;5050032;28;20028;-78
2021/05/17 13:33:01;;;;;;;0.60;0.52;;;16.80;94.40;;;;;;5049624;28;20059;-78
2021/05/17 13:35:27;;;;;;;5.38;0.70;;;16.70;95.90;;;;;;5055925;28;20500;-78
2021/05/17 13:37:53;;;;;;;0.82;0.60;;;16.60;97.90;;;;;;5069079;28;20028;-78
2021/05/17 13:40:20;;;;;;;4.28;0.73;;;16.80;98.70;;;;;;5066262;28;20022;-75
2021/05/17 13:42:46;;;;;;;2.40;0.70;;;16.90;97.20;;;;;;5065582;28;20029;-75
2021/05/17 13:45:14;;;;;;;0.88;0.55;;;16.90;95.30;;;;;;5063542;28;20021;-75
2021/05/17 13:47:40;;;;;;;2.75;0.43;;;17.00;94.40;;;;;;5067210;28;20538;-75
2021/05/17 13:50:09;;;;;;;1.20;0.57;;;16.90;92.60;;;;;;5052990;28;20049;-75
2021/05/17 13:52:35;;;;;;;1.45;0.50;;;16.40;94.30;;;;;;5046457;28;20032;-75
2021/05/17 13:55:00;;;;;;;2.13;0.50;;;16.20;95.00;;;;;;5052853;28;20389;-75
2021/05/17 13:57:26;;;;;;;1.83;0.50;;;16.00;95.90;;;;;;5052791;28;20044;-74